الصفحة الرئيسية
METAR-TAF:

METAR-TAF

مطار :

مطار جبل طارق

جبل طارق, جبل طارق

دائرة عرض: 36-09N, خط طول: 005-21W, ارتفاع: 5 متر

مراقبة الطقس الحالي

تاريخ ووقت الإصدار 26 دقيقة قبل الساعة 05:50UTC
ريح 6 عقدة من الغرب/الجنوب الغربي
درجة الحرارة 17°درجة مئوية
الرطوبة 77%
ضغط 1013 hPa
الرؤية 10 كم أو أكثر
غيوم قليلة على ارتفاع 2500 قدم

METAR: LXGB 240550Z 25006KT 9999 FEW025 17/13 Q1013

زمن: 08:16 (06:16 UTC)

توقعات

تاريخ ووقت الإصدار 1ساعة و 19 دقيقة قبل الساعة 04:57UTC
التوقعات صالحة من24 الساعة 06 UTC إلى 24 الساعة 15 UTC
ريح 8 عقدة من الغرب/الجنوب الغربي
الرؤية 10 كم أو أكثر
غيوم قليلة على ارتفاع 2500 قدم
نظرية الاحتمالات 30% :
مؤقت
من 24 الساعة 13 UTC إلى 24 الساعة 15 UTC
ريح 15 عقدة من الغرب/الجنوب الغربي تتزايد حتى 25 عقدة
غيوم متفرقة على ارتفاع 2200 قدم

TAF: LXGB 240457Z 2406/2415 25008KT 9999 FEW025 PROB30 TEMPO 2413/2415 25015G25KT SCT022

أرصاد الطقس والتوقعات من أكثر من 4000 مطار (تقارير الطقس للمطار METAR والتنبؤ بالطقس بالمطارTAF).

المحطات المتاحة هي النقط الصفراء والحمراء على الخريطة.

حرك المؤشر فوق النقطة لمعرفة اسم المحطة.

ثم انقر لمعرفة أرصاد وتوقعات الطقس.

لتغيير الخارطة: اضغط على الأزرار الخضراء مع رمز الصليب الأسود للتكبير. على الزر الأخضر مع شرطة للتصغير، أو على الأسهم الخضراء للخرائط المجاورة.


METAR-TAF: